Time;durP1;ratioP1;P1;durP2;ratioP2;P2;SDS_P1;SDS_P2;PMS_P1;PMS_P2;Temp;Humidity;BMP_temperature;BMP_pressure;BME280_temperature;BME280_humidity;BME280_pressure;Samples;Min_cycle;Max_cycle;Signal;HPM_P1;HPM_P2
2024/01/03 00:01:01;;;;;;;;;;;8.60;99.90;;;;;;5033034;28;19928;-71
2024/01/03 00:03:27;;;;;;;;;;;8.60;99.90;;;;;;5033932;28;19928;-71
2024/01/03 00:05:53;;;;;;;;;;;8.50;99.90;;;;;;5048955;28;20382;-71
2024/01/03 00:08:26;;;;;;;;;;;8.60;99.90;;;;;;5050889;28;19924;-71
2024/01/03 00:10:53;;;;;;;;;;;8.50;99.90;;;;;;5033406;28;19921;-71
2024/01/03 00:13:31;;;;;;;;;;;8.50;99.90;;;;;;5049503;28;19924;-71
2024/01/03 00:16:09;;;;;;;;;;;8.50;99.90;;;;;;5046553;28;19928;-71
2024/01/03 00:18:36;;;;;;;;;;;8.50;99.90;;;;;;5042786;28;19924;-71
2024/01/03 00:21:02;;;;;;;;;;;8.50;99.90;;;;;;5047417;28;19951;-71
2024/01/03 00:23:38;;;;;;;;;;;8.50;99.90;;;;;;5052638;28;19920;-71
2024/01/03 00:26:07;;;;;;;;;;;8.50;99.90;;;;;;5042544;28;19927;-71
2024/01/03 00:28:33;;;;;;;;;;;8.50;99.90;;;;;;5048927;28;19920;-71
2024/01/03 00:30:59;;;;;;;;;;;8.50;99.90;;;;;;5052430;28;19967;-71
2024/01/03 00:33:24;;;;;;;;;;;8.40;99.90;;;;;;5044668;28;20021;-71
2024/01/03 00:35:51;;;;;;;;;;;8.40;99.90;;;;;;5032348;28;19920;-71
2024/01/03 00:38:17;;;;;;;;;;;8.60;99.90;;;;;;5033086;28;20395;-71
2024/01/03 00:40:50;;;;;;;;;;;8.40;99.90;;;;;;5044415;28;19920;-71
2024/01/03 00:43:15;;;;;;;;;;;8.30;99.90;;;;;;5043549;28;19932;-71
2024/01/03 00:45:41;;;;;;;;;;;8.30;99.90;;;;;;5044402;28;20291;-71
2024/01/03 00:48:06;;;;;;;;;;;8.30;99.90;;;;;;5049958;28;20366;-71
2024/01/03 00:50:32;;;;;;;;;;;8.30;99.90;;;;;;5049501;28;20367;-71
2024/01/03 00:52:57;;;;;;;;;;;8.30;99.90;;;;;;5048977;28;20418;-71
2024/01/03 00:55:23;;;;;;;;;;;8.30;99.90;;;;;;5068619;28;19927;-71
2024/01/03 00:57:48;;;;;;;;;;;8.30;99.90;;;;;;5046985;28;19971;-72
2024/01/03 01:00:14;;;;;;;;;;;8.30;99.90;;;;;;5047330;28;19981;-71
2024/01/03 01:02:40;;;;;;;;;;;8.30;99.90;;;;;;5069718;28;19920;-71
2024/01/03 01:05:05;;;;;;;;;;;8.20;99.90;;;;;;5039346;28;19927;-72
2024/01/03 01:07:31;;;;;;;;;;;8.30;99.90;;;;;;5049411;28;20038;-71
2024/01/03 01:09:57;;;;;;;;;;;8.30;99.90;;;;;;5050559;28;20008;-72
2024/01/03 01:12:23;;;;;;;;;;;8.20;99.90;;;;;;5048715;28;20290;-71
2024/01/03 01:14:48;;;;;;;;;;;8.20;99.90;;;;;;5062238;28;20384;-71
2024/01/03 01:17:14;;;;;;;;;;;8.20;99.90;;;;;;5051139;28;19966;-71
2024/01/03 01:19:40;;;;;;;;;;;8.20;99.90;;;;;;5054483;28;20380;-72
2024/01/03 01:22:06;;;;;;;;;;;8.20;99.90;;;;;;5050452;28;19931;-72
2024/01/03 01:24:31;;;;;;;;;;;8.20;99.90;;;;;;5046259;28;19924;-72
2024/01/03 01:26:57;;;;;;;;;;;8.20;99.90;;;;;;5036210;28;19928;-72
2024/01/03 01:29:22;;;;;;;;;;;8.20;99.90;;;;;;5050080;28;19916;-72
2024/01/03 01:31:48;;;;;;;;;;;8.20;99.90;;;;;;5048709;28;19926;-71
2024/01/03 01:34:13;;;;;;;;;;;8.40;99.90;;;;;;5049270;28;19924;-71
2024/01/03 01:36:39;;;;;;;;;;;8.20;99.90;;;;;;5033985;28;19929;-71
2024/01/03 01:39:04;;;;;;;;;;;8.20;99.90;;;;;;5064598;28;19928;-72
2024/01/03 01:41:30;;;;;;;;;;;8.20;99.90;;;;;;5060052;28;20076;-72
2024/01/03 01:43:55;;;;;;;;;;;8.10;99.90;;;;;;5065133;28;19935;-71
2024/01/03 01:46:22;;;;;;;;;;;8.20;99.90;;;;;;5066579;28;20358;-72
2024/01/03 01:48:47;;;;;;;;;;;8.20;99.90;;;;;;5040008;28;19924;-72
2024/01/03 01:51:14;;;;;;;;;;;8.20;99.90;;;;;;5050178;28;19920;-72
2024/01/03 01:53:40;;;;;;;;;;;8.20;99.90;;;;;;5049681;28;19995;-71
2024/01/03 01:56:06;;;;;;;;;;;8.20;99.90;;;;;;5050423;28;19920;-72
2024/01/03 01:58:32;;;;;;;;;;;8.20;99.90;;;;;;5047975;28;20458;-72
2024/01/03 02:00:58;;;;;;;;;;;8.30;99.90;;;;;;5061238;28;20007;-72
2024/01/03 02:03:23;;;;;;;;;;;8.20;99.90;;;;;;5042192;28;20007;-72
2024/01/03 02:05:49;;;;;;;;;;;8.30;99.90;;;;;;5030441;28;19916;-72
2024/01/03 02:08:15;;;;;;;;;;;8.30;99.90;;;;;;5041480;28;20438;-73
2024/01/03 02:10:40;;;;;;;;;;;8.30;99.90;;;;;;5061819;28;19921;-73
2024/01/03 02:13:06;;;;;;;;;;;8.20;99.90;;;;;;5046525;28;20059;-73
2024/01/03 02:15:31;;;;;;;;;;;8.20;99.90;;;;;;5050188;28;19920;-73
2024/01/03 02:17:59;;;;;;;;;;;8.30;99.90;;;;;;5047526;28;19997;-74
2024/01/03 02:20:25;;;;;;;;;;;8.20;99.90;;;;;;5044210;28;20291;-73
2024/01/03 02:22:51;;;;;;;;;;;8.20;99.90;;;;;;5050680;28;19920;-74
2024/01/03 02:25:16;;;;;;;;;;;8.30;99.90;;;;;;5050269;28;19917;-73
2024/01/03 02:27:42;;;;;;;;;;;8.30;99.90;;;;;;5040110;28;20003;-73
2024/01/03 02:30:09;;;;;;;;;;;8.30;99.90;;;;;;5049730;28;20467;-74
2024/01/03 02:32:34;;;;;;;;;;;8.30;99.90;;;;;;5051047;28;19916;-74
2024/01/03 02:35:00;;;;;;;;;;;8.30;99.90;;;;;;5043478;28;19920;-74
2024/01/03 02:37:26;;;;;;;;;;;8.30;99.90;;;;;;5049703;28;20002;-73
2024/01/03 02:39:51;;;;;;;;;;;8.30;99.90;;;;;;5031654;28;19947;-73
2024/01/03 02:42:17;;;;;;;;;;;8.30;99.90;;;;;;5040226;28;20379;-74
2024/01/03 02:44:42;;;;;;;;;;;8.30;99.90;;;;;;5052998;28;19927;-73
2024/01/03 02:47:08;;;;;;;;;;;8.40;99.90;;;;;;5052343;28;19924;-73
2024/01/03 02:49:34;;;;;;;;;;;8.40;99.90;;;;;;5043313;28;19921;-73
2024/01/03 02:52:00;;;;;;;;;;;8.30;99.90;;;;;;5047986;28;19920;-73
2024/01/03 02:54:26;;;;;;;;;;;8.40;99.90;;;;;;5052696;28;19920;-73
2024/01/03 02:56:53;;;;;;;;;;;8.50;99.90;;;;;;5051143;28;19966;-74
2024/01/03 02:59:19;;;;;;;;;;;8.40;99.90;;;;;;5046876;28;19928;-73
2024/01/03 03:01:45;;;;;;;;;;;8.40;99.90;;;;;;5051485;28;20025;-73
2024/01/03 03:04:10;;;;;;;;;;;8.40;99.90;;;;;;5051079;28;19920;-73
2024/01/03 03:06:36;;;;;;;;;;;8.50;99.90;;;;;;5045957;28;19932;-73
2024/01/03 03:09:01;;;;;;;;;;;8.50;99.90;;;;;;5048971;28;20327;-73
2024/01/03 03:11:27;;;;;;;;;;;8.50;99.90;;;;;;5051538;28;20303;-73
2024/01/03 03:13:53;;;;;;;;;;;8.50;99.90;;;;;;5045484;28;19921;-73
2024/01/03 03:16:19;;;;;;;;;;;8.50;99.90;;;;;;5049089;28;19928;-73
2024/01/03 03:18:45;;;;;;;;;;;8.50;99.90;;;;;;5051350;28;19959;-73
2024/01/03 03:21:10;;;;;;;;;;;8.50;99.90;;;;;;5053093;28;19975;-73
2024/01/03 03:23:36;;;;;;;;;;;8.50;99.90;;;;;;5042815;28;20415;-74
2024/01/03 03:26:03;;;;;;;;;;;8.50;99.90;;;;;;5050719;28;19920;-73
2024/01/03 03:28:28;;;;;;;;;;;8.60;99.90;;;;;;5051257;28;19973;-74
2024/01/03 03:30:54;;;;;;;;;;;8.50;99.90;;;;;;5052412;28;20345;-73
2024/01/03 03:33:19;;;;;;;;;;;8.50;99.90;;;;;;5051940;28;19921;-73
2024/01/03 03:35:45;;;;;;;;;;;8.60;99.90;;;;;;5048996;28;19927;-74
2024/01/03 03:38:10;;;;;;;;;;;8.60;99.90;;;;;;5051340;28;20003;-74
2024/01/03 03:40:36;;;;;;;;;;;8.60;99.90;;;;;;5051367;28;20404;-74
2024/01/03 03:43:01;;;;;;;;;;;8.60;99.90;;;;;;5054818;28;19927;-73
2024/01/03 03:45:27;;;;;;;;;;;8.60;99.90;;;;;;5053259;28;19992;-74
2024/01/03 03:47:53;;;;;;;;;;;8.60;99.90;;;;;;5051819;28;19920;-73
2024/01/03 03:50:18;;;;;;;;;;;8.60;99.90;;;;;;5039017;28;20280;-73
2024/01/03 03:52:44;;;;;;;;;;;8.60;99.90;;;;;;5032342;28;20450;-74
2024/01/03 03:55:11;;;;;;;;;;;8.70;99.90;;;;;;5037932;28;20003;-73
2024/01/03 03:57:36;;;;;;;;;;;8.70;99.90;;;;;;5049094;28;20015;-74
2024/01/03 04:00:05;;;;;;;;;;;9.00;99.90;;;;;;5034421;28;20062;-73
2024/01/03 04:02:31;;;;;;;;;;;8.70;99.90;;;;;;5036130;28;19939;-74
2024/01/03 04:04:57;;;;;;;;;;;8.80;99.90;;;;;;5052773;28;19920;-74
2024/01/03 04:07:23;;;;;;;;;;;8.70;99.90;;;;;;5049314;28;20042;-74
2024/01/03 04:09:48;;;;;;;;;;;8.70;99.90;;;;;;5051854;28;19963;-74
2024/01/03 04:12:14;;;;;;;;;;;8.70;99.90;;;;;;5050080;28;19928;-74
2024/01/03 04:14:39;;;;;;;;;;;8.90;99.90;;;;;;5043605;28;19921;-74
2024/01/03 04:17:05;;;;;;;;;;;8.80;99.90;;;;;;5040731;28;21408;-74
2024/01/03 04:19:31;;;;;;;;;;;8.70;99.90;;;;;;5045707;28;19921;-73
2024/01/03 04:21:59;;;;;;;;;;;8.70;99.90;;;;;;5038344;28;19920;-74
2024/01/03 04:24:25;;;;;;;;;;;8.70;99.90;;;;;;5039820;28;19921;-73
2024/01/03 04:26:53;;;;;;;;;;;8.70;99.90;;;;;;5047244;28;19927;-74
2024/01/03 04:29:19;;;;;;;;;;;8.70;99.90;;;;;;5043967;28;19928;-73
2024/01/03 04:31:45;;;;;;;;;;;8.80;99.90;;;;;;5041449;28;19928;-74
2024/01/03 04:34:10;;;;;;;;;;;8.70;99.90;;;;;;5039553;28;20011;-74
2024/01/03 04:36:36;;;;;;;;;;;8.70;99.90;;;;;;5034316;28;19966;-74
2024/01/03 04:39:01;;;;;;;;;;;8.70;99.90;;;;;;5046451;28;19974;-74
2024/01/03 04:41:27;;;;;;;;;;;8.80;99.90;;;;;;5047491;28;19966;-74
2024/01/03 04:43:53;;;;;;;;;;;8.80;99.90;;;;;;5045642;28;19928;-74
2024/01/03 04:46:18;;;;;;;;;;;8.80;99.90;;;;;;5048011;28;20003;-73
2024/01/03 04:48:44;;;;;;;;;;;8.80;99.90;;;;;;5042904;28;19983;-73
2024/01/03 04:51:09;;;;;;;;;;;8.80;99.90;;;;;;5036270;28;20299;-73
2024/01/03 04:53:35;;;;;;;;;;;8.80;99.90;;;;;;5039809;28;19968;-73
2024/01/03 04:56:00;;;;;;;;;;;8.90;99.90;;;;;;5033306;28;19975;-72
2024/01/03 04:58:26;;;;;;;;;;;8.90;99.90;;;;;;5047562;28;19925;-73
2024/01/03 05:00:51;;;;;;;;;;;8.90;99.90;;;;;;5028740;28;20316;-73
2024/01/03 05:03:19;;;;;;;;;;;8.80;99.90;;;;;;5037371;28;19976;-72
2024/01/03 05:05:45;;;;;;;;;;;8.80;99.90;;;;;;5047605;28;19921;-73
2024/01/03 05:08:10;;;;;;;;;;;8.80;99.90;;;;;;5048094;28;20007;-73
2024/01/03 05:10:36;;;;;;;;;;;8.90;99.90;;;;;;5034503;28;19924;-73
2024/01/03 05:13:01;;;;;;;;;;;8.90;99.90;;;;;;5050658;28;20359;-73
2024/01/03 05:15:27;;;;;;;;;;;8.80;99.90;;;;;;5050755;28;19981;-73
2024/01/03 05:17:52;;;;;;;;;;;8.90;99.90;;;;;;5038812;28;20379;-73
2024/01/03 05:20:18;;;;;;;;;;;8.90;99.90;;;;;;5040903;28;20380;-73
2024/01/03 05:22:44;;;;;;;;;;;8.90;99.90;;;;;;5065394;28;20269;-73
2024/01/03 05:25:09;;;;;;;;;;;9.00;99.90;;;;;;5049853;28;19927;-73
2024/01/03 05:27:35;;;;;;;;;;;9.00;99.90;;;;;;5050896;28;20334;-73
2024/01/03 05:30:01;;;;;;;;;;;9.00;99.90;;;;;;5042766;28;20689;-72
2024/01/03 05:32:26;;;;;;;;;;;9.00;99.90;;;;;;5051576;28;19920;-73
2024/01/03 05:34:52;;;;;;;;;;;9.00;99.90;;;;;;5046770;28;19985;-73
2024/01/03 05:37:18;;;;;;;;;;;9.00;99.90;;;;;;5049264;28;19927;-73
2024/01/03 05:39:44;;;;;;;;;;;9.00;99.90;;;;;;5043678;28;19920;-73
2024/01/03 05:42:10;;;;;;;;;;;9.00;99.90;;;;;;5030993;28;19955;-74
2024/01/03 05:44:35;;;;;;;;;;;9.00;99.90;;;;;;5040639;28;20095;-73
2024/01/03 05:47:01;;;;;;;;;;;9.00;99.90;;;;;;5069008;28;20487;-74
2024/01/03 05:49:27;;;;;;;;;;;9.00;99.90;;;;;;5049343;28;19924;-73
2024/01/03 05:51:52;;;;;;;;;;;9.00;99.90;;;;;;5044566;28;19927;-73
2024/01/03 05:54:18;;;;;;;;;;;9.00;99.90;;;;;;5067503;28;19925;-74
2024/01/03 05:56:44;;;;;;;;;;;8.90;99.90;;;;;;5044245;28;20355;-73
2024/01/03 05:59:09;;;;;;;;;;;8.90;99.90;;;;;;5036050;28;19924;-74
2024/01/03 06:01:35;;;;;;;;;;;8.80;99.90;;;;;;5040147;28;19920;-74
2024/01/03 06:04:00;;;;;;;;;;;8.80;99.90;;;;;;5040687;28;19928;-73
2024/01/03 06:06:26;;;;;;;;;;;8.70;99.90;;;;;;5046856;28;19931;-73
2024/01/03 06:08:51;;;;;;;;;;;8.70;99.90;;;;;;5048248;28;19920;-73
2024/01/03 06:11:17;;;;;;;;;;;8.70;99.90;;;;;;5049287;28;19920;-73
2024/01/03 06:13:42;;;;;;;;;;;8.70;99.90;;;;;;5044562;28;19921;-73
2024/01/03 06:16:09;;;;;;;;;;;8.70;99.90;;;;;;5041095;28;20019;-73
2024/01/03 06:18:35;;;;;;;;;;;8.70;99.90;;;;;;5039744;28;20356;-73
2024/01/03 06:21:00;;;;;;;;;;;8.70;99.90;;;;;;5048278;28;19920;-73
2024/01/03 06:23:26;;;;;;;;;;;8.70;99.90;;;;;;5046108;28;20111;-73
2024/01/03 06:25:52;;;;;;;;;;;8.80;99.90;;;;;;5040319;28;20060;-73
2024/01/03 06:28:17;;;;;;;;;;;8.70;99.90;;;;;;5045829;28;20275;-72
2024/01/03 06:30:43;;;;;;;;;;;8.80;99.90;;;;;;5033445;28;20012;-73
2024/01/03 06:33:08;;;;;;;;;;;8.80;99.90;;;;;;5040955;28;19928;-73
2024/01/03 06:35:34;;;;;;;;;;;8.80;99.90;;;;;;5050076;28;20000;-73
2024/01/03 06:37:59;;;;;;;;;;;8.90;99.90;;;;;;5049367;28;19974;-73
2024/01/03 06:40:25;;;;;;;;;;;8.90;99.90;;;;;;5031113;28;19924;-73
2024/01/03 06:42:50;;;;;;;;;;;8.90;99.90;;;;;;5030986;28;19921;-72
2024/01/03 06:45:16;;;;;;;;;;;8.90;99.90;;;;;;5035093;28;19925;-72
2024/01/03 06:47:42;;;;;;;;;;;8.90;99.90;;;;;;5038171;28;19971;-72
2024/01/03 06:50:08;;;;;;;;;;;8.90;99.90;;;;;;5047836;28;19921;-73
2024/01/03 06:52:34;;;;;;;;;;;8.90;99.90;;;;;;5047306;28;19974;-73
2024/01/03 06:54:59;;;;;;;;;;;9.00;99.90;;;;;;5048015;28;19917;-72
2024/01/03 06:57:25;;;;;;;;;;;9.00;99.90;;;;;;5050038;28;20114;-73
2024/01/03 06:59:51;;;;;;;;;;;9.00;99.90;;;;;;5040669;28;20331;-73
2024/01/03 07:02:17;;;;;;;;;;;9.00;99.90;;;;;;5041995;28;19925;-73
2024/01/03 07:04:42;;;;;;;;;;;9.00;99.90;;;;;;5030893;28;19928;-73
2024/01/03 07:07:08;;;;;;;;;;;9.00;99.90;;;;;;5038092;28;19937;-73
2024/01/03 07:09:33;;;;;;;;;;;9.20;99.90;;;;;;5049207;28;20319;-73
2024/01/03 07:11:59;;;;;;;;;;;9.10;99.90;;;;;;5049845;28;20413;-73
2024/01/03 07:14:25;;;;;;;;;;;9.10;99.90;;;;;;5051938;28;19925;-74
2024/01/03 07:16:50;;;;;;;;;;;9.10;99.90;;;;;;5051970;28;20550;-74
2024/01/03 07:19:16;;;;;;;;;;;9.10;99.90;;;;;;5051213;28;19924;-74
2024/01/03 07:21:41;;;;;;;;;;;9.20;99.90;;;;;;5051999;28;19924;-74
2024/01/03 07:24:07;;;;;;;;;;;9.20;99.90;;;;;;5051663;28;19969;-74
2024/01/03 07:26:33;;;;;;;;;;;9.30;99.90;;;;;;5047611;28;19927;-73
2024/01/03 07:29:00;;;;;;;;;;;9.10;99.90;;;;;;5049299;28;19928;-73
2024/01/03 07:31:27;;;;;;;;;;;9.10;99.90;;;;;;5048598;28;20029;-74
2024/01/03 07:33:52;;;;;;;;;;;9.10;99.90;;;;;;5048287;28;19957;-73
2024/01/03 07:36:19;;;;;;;;;;;9.10;99.90;;;;;;5044684;28;20346;-73
2024/01/03 07:38:45;;;;;;;;;;;9.10;99.90;;;;;;5044837;28;20311;-74
2024/01/03 07:41:10;;;;;;;;;;;9.00;99.90;;;;;;5045145;28;19924;-72
2024/01/03 07:43:36;;;;;;;;;;;9.00;99.90;;;;;;5058810;28;19924;-74
2024/01/03 07:46:01;;;;;;;;;;;9.00;99.90;;;;;;5041720;28;19920;-73
2024/01/03 07:48:27;;;;;;;;;;;9.00;99.90;;;;;;5039801;28;19951;-73
2024/01/03 07:50:53;;;;;;;;;;;9.00;99.90;;;;;;5045131;28;19960;-73
2024/01/03 07:53:18;;;;;;;;;;;9.00;99.90;;;;;;5043850;28;19920;-74
2024/01/03 07:55:44;;;;;;;;;;;9.00;99.90;;;;;;5052429;28;19920;-75
2024/01/03 07:58:09;;;;;;;;;;;9.00;99.90;;;;;;5054156;28;19917;-74
2024/01/03 08:00:35;;;;;;;;;;;9.00;99.90;;;;;;5047585;28;19924;-75
2024/01/03 08:03:01;;;;;;;;;;;9.00;99.90;;;;;;5042836;28;20057;-75
2024/01/03 08:05:26;;;;;;;;;;;9.00;99.90;;;;;;5048838;28;19923;-74
2024/01/03 08:07:52;;;;;;;;;;;9.00;99.90;;;;;;5050356;28;19920;-74
2024/01/03 08:10:17;;;;;;;;;;;9.00;99.90;;;;;;5050085;28;19917;-74
2024/01/03 08:12:43;;;;;;;;;;;8.90;99.90;;;;;;5010745;28;1095423;-75
2024/01/03 08:15:09;;;;;;;;;;;8.90;99.90;;;;;;5050464;28;19928;-74
2024/01/03 08:17:34;;;;;;;;;;;8.90;99.90;;;;;;5049922;28;19916;-75
2024/01/03 08:20:00;;;;;;;;;;;9.00;99.90;;;;;;5051847;28;19924;-74
2024/01/03 08:22:25;;;;;;;;;;;9.00;99.90;;;;;;5048198;28;20354;-75
2024/01/03 08:24:51;;;;;;;;;;;9.00;99.90;;;;;;5050257;28;19925;-74
2024/01/03 08:27:19;;;;;;;;;;;9.00;99.90;;;;;;5048748;28;19963;-76
2024/01/03 08:29:45;;;;;;;;;;;9.00;99.90;;;;;;5043822;28;19978;-73
2024/01/03 08:32:11;;;;;;;;;;;9.00;99.90;;;;;;5042345;28;20368;-73
2024/01/03 08:34:37;;;;;;;;;;;9.00;99.90;;;;;;5048311;28;19936;-73
2024/01/03 08:37:03;;;;;;;;;;;9.00;99.90;;;;;;5044831;28;20281;-73
2024/01/03 08:39:28;;;;;;;;;;;9.00;99.90;;;;;;5045795;28;20440;-73
2024/01/03 08:41:54;;;;;;;;;;;9.00;99.90;;;;;;5066901;28;20367;-73
2024/01/03 08:44:22;;;;;;;;;;;9.00;99.90;;;;;;5046344;28;19928;-74
2024/01/03 08:46:48;;;;;;;;;;;9.00;99.90;;;;;;5067498;28;19964;-74
2024/01/03 08:49:14;;;;;;;;;;;9.00;99.90;;;;;;5047023;28;20575;-75
2024/01/03 08:51:43;;;;;;;;;;;9.00;99.90;;;;;;5052701;28;19920;-74
2024/01/03 08:54:08;;;;;;;;;;;9.10;99.90;;;;;;5049233;28;19928;-75
2024/01/03 08:56:34;;;;;;;;;;;9.00;99.90;;;;;;5032914;28;20434;-74
2024/01/03 08:58:59;;;;;;;;;;;9.00;99.90;;;;;;5031599;28;20482;-73
2024/01/03 09:01:27;;;;;;;;;;;9.00;99.90;;;;;;5049452;28;19936;-73
2024/01/03 09:03:53;;;;;;;;;;;9.00;99.90;;;;;;5040983;28;20011;-73
2024/01/03 09:06:20;;;;;;;;;;;9.00;99.90;;;;;;5038771;28;20288;-73
2024/01/03 09:08:47;;;;;;;;;;;9.00;99.90;;;;;;5036006;28;19946;-73
2024/01/03 09:11:12;;;;;;;;;;;9.00;99.90;;;;;;5067789;28;19928;-73
2024/01/03 09:13:39;;;;;;;;;;;9.00;99.90;;;;;;5042550;28;20228;-73
2024/01/03 09:16:11;;;;;;;;;;;9.00;99.90;;;;;;5035000;28;19973;-73
2024/01/03 09:18:37;;;;;;;;;;;9.00;99.90;;;;;;5046884;28;20427;-73
2024/01/03 09:21:05;;;;;;;;;;;9.00;99.90;;;;;;5049633;28;19967;-73
2024/01/03 09:23:31;;;;;;;;;;;9.10;99.90;;;;;;5043221;28;19921;-73
2024/01/03 09:25:57;;;;;;;;;;;9.20;99.90;;;;;;5033256;28;19929;-72
2024/01/03 09:28:23;;;;;;;;;;;9.20;99.90;;;;;;5049189;28;19951;-76
2024/01/03 09:30:49;;;;;;;;;;;9.20;99.90;;;;;;5044893;28;19935;-75
2024/01/03 09:33:14;;;;;;;;;;;9.20;99.90;;;;;;5040929;28;19921;-74
2024/01/03 09:35:40;;;;;;;;;;;9.30;99.90;;;;;;5047875;28;20042;-74
2024/01/03 09:38:06;;;;;;;;;;;9.30;99.90;;;;;;5047795;28;19979;-74
2024/01/03 09:40:33;;;;;;;;;;;9.30;99.90;;;;;;5042629;28;19927;-74
2024/01/03 09:43:02;;;;;;;;;;;9.30;99.90;;;;;;5042709;28;20228;-74
2024/01/03 09:45:28;;;;;;;;;;;9.40;99.90;;;;;;5034633;28;19960;-72
2024/01/03 09:47:53;;;;;;;;;;;9.30;99.90;;;;;;5046055;28;19967;-72
2024/01/03 09:50:19;;;;;;;;;;;9.30;99.90;;;;;;5048632;28;19925;-72
2024/01/03 09:52:45;;;;;;;;;;;9.30;99.90;;;;;;5041851;28;19921;-71
2024/01/03 09:55:10;;;;;;;;;;;9.20;99.90;;;;;;5040096;28;20019;-72
2024/01/03 09:57:37;;;;;;;;;;;9.20;99.90;;;;;;5045660;28;19925;-73
2024/01/03 10:00:03;;;;;;;;;;;9.10;99.90;;;;;;5041593;28;20399;-73
2024/01/03 10:02:28;;;;;;;;;;;9.20;99.90;;;;;;5043159;28;20295;-72
2024/01/03 10:04:54;;;;;;;;;;;9.10;99.90;;;;;;5035940;28;19920;-72
2024/01/03 10:07:32;;;;;;;;;;;9.20;99.90;;;;;;5033322;28;19921;-72
2024/01/03 10:09:58;;;;;;;;;;;9.20;99.90;;;;;;5039882;28;20003;-73
2024/01/03 10:12:23;;;;;;;;;;;9.20;99.90;;;;;;5044278;28;20016;-73
2024/01/03 10:14:50;;;;;;;;;;;9.20;99.90;;;;;;5041975;28;20442;-73
2024/01/03 10:17:16;;;;;;;;;;;9.20;99.90;;;;;;5044376;28;19942;-73
2024/01/03 10:19:41;;;;;;;;;;;9.20;99.90;;;;;;5045490;28;20272;-72
2024/01/03 10:22:07;;;;;;;;;;;9.20;99.90;;;;;;5049185;28;19920;-73
2024/01/03 10:24:39;;;;;;;;;;;9.30;99.90;;;;;;5051634;28;19921;-72
2024/01/03 10:27:09;;;;;;;;;;;9.30;99.90;;;;;;5046413;28;19924;-73
2024/01/03 10:29:35;;;;;;;;;;;9.40;99.90;;;;;;5049560;28;20022;-73
2024/01/03 10:32:03;;;;;;;;;;;9.40;99.90;;;;;;5033500;28;19927;-73
2024/01/03 10:34:28;;;;;;;;;;;9.50;99.90;;;;;;5031459;28;19993;-73
2024/01/03 10:36:55;;;;;;;;;;;9.50;99.90;;;;;;5047497;28;20351;-73
2024/01/03 10:39:21;;;;;;;;;;;9.50;99.90;;;;;;5037042;28;20003;-72
2024/01/03 10:41:47;;;;;;;;;;;9.40;99.90;;;;;;5073406;28;20004;-73
2024/01/03 10:44:14;;;;;;;;;;;9.40;99.90;;;;;;5073271;28;21482;-73
2024/01/03 10:46:43;;;;;;;;;;;9.40;99.90;;;;;;5062229;28;20423;-74
2024/01/03 10:49:09;;;;;;;;;;;9.40;99.90;;;;;;5067752;28;20011;-74
2024/01/03 10:51:41;;;;;;;;;;;9.30;99.90;;;;;;5069329;28;20011;-74
2024/01/03 10:54:08;;;;;;;;;;;9.30;99.90;;;;;;5032415;28;19924;-74
2024/01/03 10:56:34;;;;;;;;;;;9.20;99.90;;;;;;5045599;28;19953;-74
2024/01/03 10:59:00;;;;;;;;;;;9.10;99.90;;;;;;5062724;28;20372;-72
2024/01/03 11:01:28;;;;;;;;;;;9.10;99.90;;;;;;5047626;28;19993;-73
2024/01/03 11:04:13;;;;;;;;;;;9.00;99.90;;;;;;5033961;28;19927;-74
2024/01/03 11:06:48;;;;;;;;;;;9.10;99.90;;;;;;5048440;28;19932;-74
2024/01/03 11:09:14;;;;;;;;;;;9.10;99.90;;;;;;5047459;28;19920;-73
2024/01/03 11:11:39;;;;;;;;;;;9.20;99.90;;;;;;5049712;28;20019;-74
2024/01/03 11:14:17;;;;;;;;;;;9.20;99.90;;;;;;5051309;28;19965;-74
2024/01/03 11:16:43;;;;;;;;;;;9.30;99.90;;;;;;5049883;28;19927;-74
2024/01/03 11:19:09;;;;;;;;;;;9.50;99.90;;;;;;5049721;28;20431;-74
2024/01/03 11:21:35;;;;;;;;;;;9.70;99.90;;;;;;5053793;28;20026;-74
2024/01/03 11:24:01;;;;;;;;;;;9.80;99.90;;;;;;5054873;28;19921;-74
2024/01/03 11:26:45;;;;;;;;;;;10.00;99.90;;;;;;5034059;28;19966;-74
2024/01/03 11:29:31;;;;;;;;;;;10.10;99.90;;;;;;5048379;28;19924;-74
2024/01/03 11:32:02;;;;;;;;;;;10.10;99.90;;;;;;5050052;28;20010;-74
2024/01/03 11:34:37;;;;;;;;;;;10.20;99.90;;;;;;5052718;28;19982;-72
2024/01/03 11:37:06;;;;;;;;;;;10.30;99.90;;;;;;5046893;28;20011;-74
2024/01/03 11:39:35;;;;;;;;;;;10.30;99.90;;;;;;5050793;28;19920;-74
2024/01/03 11:42:02;;;;;;;;;;;10.40;99.90;;;;;;5048243;28;20317;-73
2024/01/03 11:44:27;;;;;;;;;;;10.40;99.90;;;;;;5049096;28;20009;-74
2024/01/03 11:47:03;;;;;;;;;;;10.50;99.90;;;;;;5067443;28;20379;-74
2024/01/03 11:49:28;;;;;;;;;;;10.50;99.90;;;;;;5048075;28;19926;-73
2024/01/03 11:52:01;;;;;;;;;;;10.60;99.90;;;;;;5065180;28;20030;-75
2024/01/03 11:54:27;;;;;;;;;;;10.80;99.90;;;;;;5059102;28;20288;-74
2024/01/03 11:56:56;;;;;;;;;;;10.80;99.90;;;;;;5043862;28;20331;-74
2024/01/03 11:59:22;;;;;;;;;;;10.80;99.90;;;;;;5063824;28;20019;-74
2024/01/03 12:01:58;;;;;;;;;;;10.70;99.90;;;;;;5065004;28;20439;-73
2024/01/03 12:04:24;;;;;;;;;;;10.70;99.90;;;;;;5040148;28;20395;-73
2024/01/03 12:06:55;;;;;;;;;;;10.60;99.90;;;;;;5060921;28;20015;-73
2024/01/03 12:09:22;;;;;;;;;;;10.60;99.90;;;;;;5044095;28;20065;-76
2024/01/03 12:11:47;;;;;;;;;;;10.50;99.90;;;;;;5040974;28;20014;-73
2024/01/03 12:14:16;;;;;;;;;;;10.40;99.90;;;;;;5041487;28;19979;-73
2024/01/03 12:16:48;;;;;;;;;;;10.30;99.90;;;;;;5064785;28;19998;-74
2024/01/03 12:19:21;;;;;;;;;;;10.30;99.90;;;;;;5041277;28;20566;-72
2024/01/03 12:21:56;;;;;;;;;;;10.20;99.90;;;;;;5045929;28;19924;-74
2024/01/03 12:24:36;;;;;;;;;;;10.20;99.90;;;;;;5046010;28;19928;-75
2024/01/03 12:27:01;;;;;;;;;;;10.10;99.90;;;;;;5051708;28;20408;-73
2024/01/03 12:29:27;;;;;;;;;;;10.10;99.90;;;;;;5058170;28;19920;-73
2024/01/03 12:31:52;;;;;;;;;;;10.10;99.90;;;;;;5063717;28;19928;-71
2024/01/03 12:34:18;;;;;;;;;;;10.00;99.90;;;;;;5044651;28;19978;-73
2024/01/03 12:36:44;;;;;;;;;;;10.00;99.90;;;;;;5047935;28;19963;-73
2024/01/03 12:39:09;;;;;;;;;;;10.10;99.90;;;;;;5060198;28;20015;-71
2024/01/03 12:41:35;;;;;;;;;;;10.10;99.90;;;;;;5040372;28;19962;-72
2024/01/03 12:44:00;;;;;;;;;;;10.10;99.90;;;;;;5038236;28;20347;-72
2024/01/03 12:46:26;;;;;;;;;;;10.10;99.90;;;;;;5045446;28;19975;-72
2024/01/03 12:48:52;;;;;;;;;;;10.10;99.90;;;;;;5049706;28;19935;-72
2024/01/03 12:51:17;;;;;;;;;;;10.20;99.90;;;;;;5065434;28;19928;-72
2024/01/03 12:53:43;;;;;;;;;;;10.20;99.90;;;;;;5040108;28;19921;-71
2024/01/03 12:56:08;;;;;;;;;;;10.20;99.90;;;;;;5047384;28;20553;-71
2024/01/03 12:58:34;;;;;;;;;;;10.20;99.90;;;;;;5041505;28;19921;-71
2024/01/03 13:00:59;;;;;;;;;;;10.10;99.90;;;;;;5038913;28;19929;-72
2024/01/03 13:03:25;;;;;;;;;;;10.10;99.90;;;;;;5037499;28;19924;-71
2024/01/03 13:05:51;;;;;;;;;;;10.10;99.90;;;;;;5047196;28;20563;-80
2024/01/03 13:08:17;;;;;;;;;;;10.10;99.90;;;;;;5046917;28;19920;-71
2024/01/03 13:10:43;;;;;;;;;;;10.00;99.90;;;;;;5041194;28;19947;-72
2024/01/03 13:13:08;;;;;;;;;;;10.00;99.90;;;;;;5041752;28;20284;-72
2024/01/03 13:15:34;;;;;;;;;;;10.00;99.90;;;;;;5042699;28;20020;-72
2024/01/03 13:18:00;;;;;;;;;;;10.00;99.90;;;;;;5039507;28;19936;-72
2024/01/03 13:20:26;;;;;;;;;;;10.10;99.90;;;;;;5044996;28;19924;-72
2024/01/03 13:22:51;;;;;;;;;;;10.10;99.90;;;;;;5041911;28;19920;-72
2024/01/03 13:25:17;;;;;;;;;;;10.20;99.90;;;;;;5043136;28;19983;-73
2024/01/03 13:27:43;;;;;;;;;;;10.20;99.90;;;;;;5042903;28;19947;-73
2024/01/03 13:30:09;;;;;;;;;;;10.20;99.90;;;;;;5041089;28;19936;-73
2024/01/03 13:32:37;;;;;;;;;;;10.20;99.90;;;;;;5040768;28;20058;-73
2024/01/03 13:35:03;;;;;;;;;;;10.30;99.90;;;;;;5042355;28;19920;-73
2024/01/03 13:37:28;;;;;;;;;;;10.30;99.90;;;;;;5043208;28;19942;-73
2024/01/03 13:39:54;;;;;;;;;;;10.20;99.90;;;;;;5039460;28;21276;-74
2024/01/03 13:42:20;;;;;;;;;;;10.30;99.90;;;;;;5045227;28;19924;-72
2024/01/03 13:44:45;;;;;;;;;;;10.30;99.90;;;;;;5047283;28;19928;-73
2024/01/03 13:47:11;;;;;;;;;;;10.20;99.90;;;;;;5042584;28;20299;-73
2024/01/03 13:49:36;;;;;;;;;;;10.20;99.90;;;;;;5046251;28;20484;-73
2024/01/03 13:52:04;;;;;;;;;;;10.20;99.90;;;;;;5044813;28;19921;-73
2024/01/03 13:54:29;;;;;;;;;;;10.10;99.90;;;;;;5045709;28;20250;-72
2024/01/03 13:56:55;;;;;;;;;;;10.10;99.90;;;;;;5045472;28;19940;-72
2024/01/03 13:59:20;;;;;;;;;;;9.70;99.90;;;;;;5041685;28;20379;-72
2024/01/03 14:01:47;;;;;;;;;;;10.00;99.90;;;;;;5046205;28;19927;-72
2024/01/03 14:04:14;;;;;;;;;;;10.00;99.90;;;;;;5042931;28;19939;-72
2024/01/03 14:06:44;;;;;;;;;;;10.00;99.90;;;;;;5041627;28;19925;-73
2024/01/03 14:09:10;;;;;;;;;;;10.00;99.90;;;;;;5040069;28;19963;-73
2024/01/03 14:11:35;;;;;;;;;;;9.90;99.90;;;;;;5043148;28;19968;-72
2024/01/03 14:14:01;;;;;;;;;;;9.90;99.90;;;;;;5053237;28;20631;-72
2024/01/03 14:16:26;;;;;;;;;;;9.90;99.90;;;;;;5063893;28;20029;-72
2024/01/03 14:18:54;;;;;;;;;;;9.90;99.90;;;;;;5064351;28;19920;-72
2024/01/03 14:21:19;;;;;;;;;;;9.80;99.90;;;;;;5047359;28;19946;-72
2024/01/03 14:23:47;;;;;;;;;;;9.80;99.90;;;;;;5045990;28;19977;-74